sensor_id;sensor_type;location;lat;lon;timestamp;temperature;humidity
27540;DHT22;15906;52.046;4.724;2023-02-23T00:01:13;8.50;99.90
27540;DHT22;15906;52.046;4.724;2023-02-23T00:03:39;8.50;99.90
27540;DHT22;15906;52.046;4.724;2023-02-23T00:06:06;8.50;99.90
27540;DHT22;15906;52.046;4.724;2023-02-23T00:08:32;8.50;99.90
27540;DHT22;15906;52.046;4.724;2023-02-23T00:11:02;8.50;99.90
27540;DHT22;15906;52.046;4.724;2023-02-23T00:13:30;8.50;99.90
27540;DHT22;15906;52.046;4.724;2023-02-23T00:15:56;8.50;99.90
27540;DHT22;15906;52.046;4.724;2023-02-23T00:18:21;8.50;99.90
27540;DHT22;15906;52.046;4.724;2023-02-23T00:20:56;8.50;99.90
27540;DHT22;15906;52.046;4.724;2023-02-23T00:23:23;8.50;99.90
27540;DHT22;15906;52.046;4.724;2023-02-23T00:25:48;8.50;99.90
27540;DHT22;15906;52.046;4.724;2023-02-23T00:28:14;8.40;99.90
27540;DHT22;15906;52.046;4.724;2023-02-23T00:30:40;8.40;99.90
27540;DHT22;15906;52.046;4.724;2023-02-23T00:33:05;8.50;99.90
27540;DHT22;15906;52.046;4.724;2023-02-23T00:35:32;8.50;99.90
27540;DHT22;15906;52.046;4.724;2023-02-23T00:37:58;8.50;99.90
27540;DHT22;15906;52.046;4.724;2023-02-23T00:40:23;8.50;99.90
27540;DHT22;15906;52.046;4.724;2023-02-23T00:42:49;8.50;99.90
27540;DHT22;15906;52.046;4.724;2023-02-23T00:45:17;8.40;99.90
27540;DHT22;15906;52.046;4.724;2023-02-23T00:47:44;8.40;99.90
27540;DHT22;15906;52.046;4.724;2023-02-23T00:50:13;8.40;99.90
27540;DHT22;15906;52.046;4.724;2023-02-23T00:52:43;8.40;99.90
27540;DHT22;15906;52.046;4.724;2023-02-23T00:55:13;8.30;99.90
27540;DHT22;15906;52.046;4.724;2023-02-23T00:57:39;8.30;99.90
27540;DHT22;15906;52.046;4.724;2023-02-23T01:00:07;8.20;99.90
27540;DHT22;15906;52.046;4.724;2023-02-23T01:02:46;8.30;99.90
27540;DHT22;15906;52.046;4.724;2023-02-23T01:05:12;8.40;99.90
27540;DHT22;15906;52.046;4.724;2023-02-23T01:07:39;8.40;99.90
27540;DHT22;15906;52.046;4.724;2023-02-23T01:10:05;8.50;99.90
27540;DHT22;15906;52.046;4.724;2023-02-23T01:12:45;8.40;99.90
27540;DHT22;15906;52.046;4.724;2023-02-23T01:15:11;8.40;99.90
27540;DHT22;15906;52.046;4.724;2023-02-23T01:17:37;8.20;99.90
27540;DHT22;15906;52.046;4.724;2023-02-23T01:20:02;8.30;99.90
27540;DHT22;15906;52.046;4.724;2023-02-23T01:22:40;8.30;99.90
27540;DHT22;15906;52.046;4.724;2023-02-23T01:25:06;8.40;99.90
27540;DHT22;15906;52.046;4.724;2023-02-23T01:27:32;8.40;99.90
27540;DHT22;15906;52.046;4.724;2023-02-23T01:29:59;8.40;99.90
27540;DHT22;15906;52.046;4.724;2023-02-23T01:32:25;8.40;99.90
27540;DHT22;15906;52.046;4.724;2023-02-23T01:34:51;8.40;99.90
27540;DHT22;15906;52.046;4.724;2023-02-23T01:37:16;8.50;99.90
27540;DHT22;15906;52.046;4.724;2023-02-23T01:39:42;8.50;99.90
27540;DHT22;15906;52.046;4.724;2023-02-23T01:42:13;8.40;99.90
27540;DHT22;15906;52.046;4.724;2023-02-23T01:47:05;8.40;99.90
27540;DHT22;15906;52.046;4.724;2023-02-23T01:49:32;8.40;99.90
27540;DHT22;15906;52.046;4.724;2023-02-23T01:52:13;8.40;99.90
27540;DHT22;15906;52.046;4.724;2023-02-23T01:54:46;8.40;99.90
27540;DHT22;15906;52.046;4.724;2023-02-23T01:57:16;8.40;99.90
27540;DHT22;15906;52.046;4.724;2023-02-23T01:59:44;8.30;99.90
27540;DHT22;15906;52.046;4.724;2023-02-23T02:02:10;8.40;99.90
27540;DHT22;15906;52.046;4.724;2023-02-23T02:04:39;8.30;99.90
27540;DHT22;15906;52.046;4.724;2023-02-23T02:07:22;8.30;99.90
27540;DHT22;15906;52.046;4.724;2023-02-23T02:09:52;8.30;99.90
27540;DHT22;15906;52.046;4.724;2023-02-23T02:12:43;8.30;99.90
27540;DHT22;15906;52.046;4.724;2023-02-23T02:15:11;8.40;99.90
27540;DHT22;15906;52.046;4.724;2023-02-23T02:25:59;8.30;99.90
27540;DHT22;15906;52.046;4.724;2023-02-23T02:41:57;8.30;99.90
27540;DHT22;15906;52.046;4.724;2023-02-23T02:47:11;8.30;99.90
27540;DHT22;15906;52.046;4.724;2023-02-23T02:50:05;8.30;99.90
27540;DHT22;15906;52.046;4.724;2023-02-23T02:52:39;8.30;99.90
27540;DHT22;15906;52.046;4.724;2023-02-23T02:55:14;8.30;99.90
27540;DHT22;15906;52.046;4.724;2023-02-23T02:57:44;8.20;99.90
27540;DHT22;15906;52.046;4.724;2023-02-23T03:00:17;8.20;99.90
27540;DHT22;15906;52.046;4.724;2023-02-23T03:03:02;8.20;99.90
27540;DHT22;15906;52.046;4.724;2023-02-23T03:05:48;8.30;99.90
27540;DHT22;15906;52.046;4.724;2023-02-23T03:09:24;8.30;99.90
27540;DHT22;15906;52.046;4.724;2023-02-23T03:12:44;8.20;99.90
27540;DHT22;15906;52.046;4.724;2023-02-23T03:18:57;8.20;99.90
27540;DHT22;15906;52.046;4.724;2023-02-23T03:21:50;8.20;99.90
27540;DHT22;15906;52.046;4.724;2023-02-23T03:24:43;8.20;99.90
27540;DHT22;15906;52.046;4.724;2023-02-23T03:30:39;8.20;99.90
27540;DHT22;15906;52.046;4.724;2023-02-23T03:33:41;8.20;99.90
27540;DHT22;15906;52.046;4.724;2023-02-23T03:36:27;8.20;99.90
27540;DHT22;15906;52.046;4.724;2023-02-23T03:39:25;8.10;99.90
27540;DHT22;15906;52.046;4.724;2023-02-23T03:42:16;8.10;99.90
27540;DHT22;15906;52.046;4.724;2023-02-23T03:45:12;8.10;99.90
27540;DHT22;15906;52.046;4.724;2023-02-23T03:47:58;8.20;99.90
27540;DHT22;15906;52.046;4.724;2023-02-23T03:50:53;8.10;99.90
27540;DHT22;15906;52.046;4.724;2023-02-23T03:53:46;8.00;99.90
27540;DHT22;15906;52.046;4.724;2023-02-23T03:56:35;8.10;99.90
27540;DHT22;15906;52.046;4.724;2023-02-23T03:59:23;8.20;99.90
27540;DHT22;15906;52.046;4.724;2023-02-23T04:02:10;8.10;99.90
27540;DHT22;15906;52.046;4.724;2023-02-23T04:04:58;8.00;99.90
27540;DHT22;15906;52.046;4.724;2023-02-23T04:07:46;8.00;99.90
27540;DHT22;15906;52.046;4.724;2023-02-23T04:10:33;8.10;99.90
27540;DHT22;15906;52.046;4.724;2023-02-23T04:13:21;8.10;99.90
27540;DHT22;15906;52.046;4.724;2023-02-23T04:15:55;8.10;99.90
27540;DHT22;15906;52.046;4.724;2023-02-23T04:18:27;8.20;99.90
27540;DHT22;15906;52.046;4.724;2023-02-23T04:20:56;8.20;99.90
27540;DHT22;15906;52.046;4.724;2023-02-23T04:23:22;8.10;99.90
27540;DHT22;15906;52.046;4.724;2023-02-23T04:25:52;8.20;99.90
27540;DHT22;15906;52.046;4.724;2023-02-23T04:28:19;8.20;99.90
27540;DHT22;15906;52.046;4.724;2023-02-23T04:30:45;8.20;99.90
27540;DHT22;15906;52.046;4.724;2023-02-23T04:33:10;8.20;99.90
27540;DHT22;15906;52.046;4.724;2023-02-23T04:35:36;8.20;99.90
27540;DHT22;15906;52.046;4.724;2023-02-23T04:38:02;8.20;99.90
27540;DHT22;15906;52.046;4.724;2023-02-23T04:40:28;8.20;99.90
27540;DHT22;15906;52.046;4.724;2023-02-23T04:42:54;8.20;99.90
27540;DHT22;15906;52.046;4.724;2023-02-23T04:45:20;8.20;99.90
27540;DHT22;15906;52.046;4.724;2023-02-23T04:47:46;8.10;99.90
27540;DHT22;15906;52.046;4.724;2023-02-23T04:50:12;8.20;99.90
27540;DHT22;15906;52.046;4.724;2023-02-23T04:52:38;8.20;99.90
27540;DHT22;15906;52.046;4.724;2023-02-23T04:55:05;8.10;99.90
27540;DHT22;15906;52.046;4.724;2023-02-23T04:57:32;8.20;99.90
27540;DHT22;15906;52.046;4.724;2023-02-23T04:59:57;8.20;99.90
27540;DHT22;15906;52.046;4.724;2023-02-23T05:02:23;8.20;99.90
27540;DHT22;15906;52.046;4.724;2023-02-23T05:04:49;8.20;99.90
27540;DHT22;15906;52.046;4.724;2023-02-23T05:07:15;8.10;99.90
27540;DHT22;15906;52.046;4.724;2023-02-23T05:09:41;8.10;99.90
27540;DHT22;15906;52.046;4.724;2023-02-23T05:12:06;8.00;99.90
27540;DHT22;15906;52.046;4.724;2023-02-23T05:14:32;8.00;99.90
27540;DHT22;15906;52.046;4.724;2023-02-23T05:16:57;8.00;99.90
27540;DHT22;15906;52.046;4.724;2023-02-23T05:19:23;8.00;99.90
27540;DHT22;15906;52.046;4.724;2023-02-23T05:21:49;8.00;99.90
27540;DHT22;15906;52.046;4.724;2023-02-23T05:24:15;8.00;99.90
27540;DHT22;15906;52.046;4.724;2023-02-23T05:26:42;8.00;99.90
27540;DHT22;15906;52.046;4.724;2023-02-23T05:29:08;8.00;99.90
27540;DHT22;15906;52.046;4.724;2023-02-23T05:31:33;8.00;99.90
27540;DHT22;15906;52.046;4.724;2023-02-23T05:33:59;8.00;99.90
27540;DHT22;15906;52.046;4.724;2023-02-23T05:36:25;8.00;99.90
27540;DHT22;15906;52.046;4.724;2023-02-23T05:38:50;8.00;99.90
27540;DHT22;15906;52.046;4.724;2023-02-23T05:41:18;8.00;99.90
27540;DHT22;15906;52.046;4.724;2023-02-23T05:43:45;8.00;99.90
27540;DHT22;15906;52.046;4.724;2023-02-23T05:46:16;8.00;99.90
27540;DHT22;15906;52.046;4.724;2023-02-23T05:48:42;8.00;99.90
27540;DHT22;15906;52.046;4.724;2023-02-23T05:51:11;8.00;99.90
27540;DHT22;15906;52.046;4.724;2023-02-23T05:53:37;8.00;99.90
27540;DHT22;15906;52.046;4.724;2023-02-23T05:56:05;7.90;99.90
27540;DHT22;15906;52.046;4.724;2023-02-23T05:58:32;7.90;99.90
27540;DHT22;15906;52.046;4.724;2023-02-23T06:00:57;8.00;99.90
27540;DHT22;15906;52.046;4.724;2023-02-23T06:03:23;8.00;99.90
27540;DHT22;15906;52.046;4.724;2023-02-23T06:05:53;8.00;99.90
27540;DHT22;15906;52.046;4.724;2023-02-23T06:08:19;8.00;99.90
27540;DHT22;15906;52.046;4.724;2023-02-23T06:10:46;8.00;99.90
27540;DHT22;15906;52.046;4.724;2023-02-23T06:13:12;8.00;99.90
27540;DHT22;15906;52.046;4.724;2023-02-23T06:15:38;8.00;99.90
27540;DHT22;15906;52.046;4.724;2023-02-23T06:18:05;8.00;99.90
27540;DHT22;15906;52.046;4.724;2023-02-23T06:20:30;8.00;99.90
27540;DHT22;15906;52.046;4.724;2023-02-23T06:22:56;8.00;99.90
27540;DHT22;15906;52.046;4.724;2023-02-23T06:25:22;8.10;99.90
27540;DHT22;15906;52.046;4.724;2023-02-23T06:27:47;8.10;99.90
27540;DHT22;15906;52.046;4.724;2023-02-23T06:30:13;8.00;99.90
27540;DHT22;15906;52.046;4.724;2023-02-23T06:32:39;8.00;99.90
27540;DHT22;15906;52.046;4.724;2023-02-23T06:35:06;8.00;99.90
27540;DHT22;15906;52.046;4.724;2023-02-23T06:37:32;7.90;99.90
27540;DHT22;15906;52.046;4.724;2023-02-23T06:39:58;8.00;99.90
27540;DHT22;15906;52.046;4.724;2023-02-23T06:42:23;8.00;99.90
27540;DHT22;15906;52.046;4.724;2023-02-23T06:44:49;7.90;99.90
27540;DHT22;15906;52.046;4.724;2023-02-23T06:47:15;7.90;99.90
27540;DHT22;15906;52.046;4.724;2023-02-23T06:49:40;7.90;99.90
27540;DHT22;15906;52.046;4.724;2023-02-23T06:52:07;7.80;99.90
27540;DHT22;15906;52.046;4.724;2023-02-23T06:54:34;7.80;99.90
27540;DHT22;15906;52.046;4.724;2023-02-23T06:57:00;7.90;99.90
27540;DHT22;15906;52.046;4.724;2023-02-23T06:59:25;7.90;99.90
27540;DHT22;15906;52.046;4.724;2023-02-23T07:01:51;7.90;99.90
27540;DHT22;15906;52.046;4.724;2023-02-23T07:04:17;7.90;99.90
27540;DHT22;15906;52.046;4.724;2023-02-23T07:06:42;7.90;99.90
27540;DHT22;15906;52.046;4.724;2023-02-23T07:09:08;7.90;99.90
27540;DHT22;15906;52.046;4.724;2023-02-23T07:11:33;7.80;99.90
27540;DHT22;15906;52.046;4.724;2023-02-23T07:13:59;7.80;99.90
27540;DHT22;15906;52.046;4.724;2023-02-23T07:16:28;7.80;99.90
27540;DHT22;15906;52.046;4.724;2023-02-23T07:18:54;7.80;99.90
27540;DHT22;15906;52.046;4.724;2023-02-23T07:21:20;7.80;99.90
27540;DHT22;15906;52.046;4.724;2023-02-23T07:23:46;7.90;99.90
27540;DHT22;15906;52.046;4.724;2023-02-23T07:26:15;7.90;99.90
27540;DHT22;15906;52.046;4.724;2023-02-23T07:28:41;8.00;99.90
27540;DHT22;15906;52.046;4.724;2023-02-23T07:31:07;7.90;99.90
27540;DHT22;15906;52.046;4.724;2023-02-23T07:33:33;7.90;99.90
27540;DHT22;15906;52.046;4.724;2023-02-23T07:35:59;7.90;99.90
27540;DHT22;15906;52.046;4.724;2023-02-23T07:38:24;7.90;99.90
27540;DHT22;15906;52.046;4.724;2023-02-23T07:40:50;7.90;99.90
27540;DHT22;15906;52.046;4.724;2023-02-23T07:43:16;8.00;99.90
27540;DHT22;15906;52.046;4.724;2023-02-23T07:45:42;8.00;99.90
27540;DHT22;15906;52.046;4.724;2023-02-23T07:48:08;7.90;99.90
27540;DHT22;15906;52.046;4.724;2023-02-23T07:50:34;7.90;99.90
27540;DHT22;15906;52.046;4.724;2023-02-23T07:53:00;7.90;99.90
27540;DHT22;15906;52.046;4.724;2023-02-23T07:55:26;7.90;99.90
27540;DHT22;15906;52.046;4.724;2023-02-23T07:57:52;8.00;99.90
27540;DHT22;15906;52.046;4.724;2023-02-23T08:00:18;8.00;99.90
27540;DHT22;15906;52.046;4.724;2023-02-23T08:02:43;8.00;99.90
27540;DHT22;15906;52.046;4.724;2023-02-23T08:05:09;8.10;99.90
27540;DHT22;15906;52.046;4.724;2023-02-23T08:07:35;8.10;99.90
27540;DHT22;15906;52.046;4.724;2023-02-23T08:10:01;8.10;99.90
27540;DHT22;15906;52.046;4.724;2023-02-23T08:12:26;8.10;99.90
27540;DHT22;15906;52.046;4.724;2023-02-23T08:14:52;8.20;99.90
27540;DHT22;15906;52.046;4.724;2023-02-23T08:17:18;8.20;99.90
27540;DHT22;15906;52.046;4.724;2023-02-23T08:19:44;8.20;99.90
27540;DHT22;15906;52.046;4.724;2023-02-23T08:22:09;8.30;99.90
27540;DHT22;15906;52.046;4.724;2023-02-23T08:24:35;8.40;99.90
27540;DHT22;15906;52.046;4.724;2023-02-23T08:27:02;8.40;99.90
27540;DHT22;15906;52.046;4.724;2023-02-23T08:29:28;8.30;99.90
27540;DHT22;15906;52.046;4.724;2023-02-23T08:31:53;8.30;99.90
27540;DHT22;15906;52.046;4.724;2023-02-23T08:34:20;8.30;99.90
27540;DHT22;15906;52.046;4.724;2023-02-23T08:36:47;8.50;99.90
27540;DHT22;15906;52.046;4.724;2023-02-23T08:39:13;8.70;99.90
27540;DHT22;15906;52.046;4.724;2023-02-23T08:41:40;8.70;99.90
27540;DHT22;15906;52.046;4.724;2023-02-23T08:44:06;8.80;99.90
27540;DHT22;15906;52.046;4.724;2023-02-23T08:46:32;8.90;99.90
27540;DHT22;15906;52.046;4.724;2023-02-23T08:48:58;9.00;99.90
27540;DHT22;15906;52.046;4.724;2023-02-23T08:51:24;9.00;99.90
27540;DHT22;15906;52.046;4.724;2023-02-23T08:53:50;9.10;99.90
27540;DHT22;15906;52.046;4.724;2023-02-23T08:56:16;9.00;99.90
27540;DHT22;15906;52.046;4.724;2023-02-23T08:58:42;8.90;99.90
27540;DHT22;15906;52.046;4.724;2023-02-23T09:01:15;8.80;99.90
27540;DHT22;15906;52.046;4.724;2023-02-23T09:03:42;8.90;99.90
27540;DHT22;15906;52.046;4.724;2023-02-23T09:06:13;8.70;99.90
27540;DHT22;15906;52.046;4.724;2023-02-23T09:08:39;8.80;99.90
27540;DHT22;15906;52.046;4.724;2023-02-23T09:11:05;8.70;99.90
27540;DHT22;15906;52.046;4.724;2023-02-23T09:13:31;8.80;99.90
27540;DHT22;15906;52.046;4.724;2023-02-23T09:15:57;8.80;99.90
27540;DHT22;15906;52.046;4.724;2023-02-23T09:18:23;8.80;99.90
27540;DHT22;15906;52.046;4.724;2023-02-23T09:20:49;8.70;99.90
27540;DHT22;15906;52.046;4.724;2023-02-23T09:23:15;8.70;99.90
27540;DHT22;15906;52.046;4.724;2023-02-23T09:25:44;8.80;99.90
27540;DHT22;15906;52.046;4.724;2023-02-23T09:28:14;8.70;99.90
27540;DHT22;15906;52.046;4.724;2023-02-23T09:30:42;8.70;99.90
27540;DHT22;15906;52.046;4.724;2023-02-23T09:33:08;8.80;99.90
27540;DHT22;15906;52.046;4.724;2023-02-23T09:35:34;8.80;99.90
27540;DHT22;15906;52.046;4.724;2023-02-23T09:38:01;8.80;99.90
27540;DHT22;15906;52.046;4.724;2023-02-23T09:40:48;8.80;99.90
27540;DHT22;15906;52.046;4.724;2023-02-23T09:43:21;8.90;99.90
27540;DHT22;15906;52.046;4.724;2023-02-23T09:48:38;8.90;99.90
27540;DHT22;15906;52.046;4.724;2023-02-23T09:51:06;8.80;99.90
27540;DHT22;15906;52.046;4.724;2023-02-23T09:53:42;8.80;99.90
27540;DHT22;15906;52.046;4.724;2023-02-23T09:58:47;9.00;99.90
27540;DHT22;15906;52.046;4.724;2023-02-23T10:04:10;9.30;99.90
27540;DHT22;15906;52.046;4.724;2023-02-23T10:06:39;9.30;99.90
27540;DHT22;15906;52.046;4.724;2023-02-23T10:23:03;9.10;99.90
27540;DHT22;15906;52.046;4.724;2023-02-23T10:25:34;9.00;99.90
27540;DHT22;15906;52.046;4.724;2023-02-23T10:28:01;8.80;99.90
27540;DHT22;15906;52.046;4.724;2023-02-23T10:30:30;8.80;99.90
27540;DHT22;15906;52.046;4.724;2023-02-23T10:33:09;8.90;99.90
27540;DHT22;15906;52.046;4.724;2023-02-23T10:35:38;8.90;99.90
27540;DHT22;15906;52.046;4.724;2023-02-23T10:38:04;9.00;99.90
27540;DHT22;15906;52.046;4.724;2023-02-23T10:40:31;8.90;99.90
27540;DHT22;15906;52.046;4.724;2023-02-23T10:42:59;8.90;99.90
27540;DHT22;15906;52.046;4.724;2023-02-23T10:45:27;8.90;99.90
27540;DHT22;15906;52.046;4.724;2023-02-23T10:48:07;8.80;99.90
27540;DHT22;15906;52.046;4.724;2023-02-23T10:50:36;8.70;99.90
27540;DHT22;15906;52.046;4.724;2023-02-23T10:53:24;8.90;99.90
27540;DHT22;15906;52.046;4.724;2023-02-23T10:56:09;8.80;99.90
27540;DHT22;15906;52.046;4.724;2023-02-23T10:58:58;8.80;99.90
27540;DHT22;15906;52.046;4.724;2023-02-23T11:01:38;8.80;99.90
27540;DHT22;15906;52.046;4.724;2023-02-23T11:04:26;8.80;99.90
27540;DHT22;15906;52.046;4.724;2023-02-23T11:07:16;8.80;99.90
27540;DHT22;15906;52.046;4.724;2023-02-23T11:09:43;8.90;99.90
27540;DHT22;15906;52.046;4.724;2023-02-23T11:12:15;8.70;99.90
27540;DHT22;15906;52.046;4.724;2023-02-23T11:14:41;8.70;99.90
27540;DHT22;15906;52.046;4.724;2023-02-23T11:17:30;8.80;99.90
27540;DHT22;15906;52.046;4.724;2023-02-23T11:20:02;9.00;99.90
27540;DHT22;15906;52.046;4.724;2023-02-23T11:22:34;9.00;99.90
27540;DHT22;15906;52.046;4.724;2023-02-23T11:25:02;9.00;99.90
27540;DHT22;15906;52.046;4.724;2023-02-23T11:27:35;9.00;99.90
27540;DHT22;15906;52.046;4.724;2023-02-23T11:30:04;8.90;99.90
27540;DHT22;15906;52.046;4.724;2023-02-23T11:32:32;8.90;99.90
27540;DHT22;15906;52.046;4.724;2023-02-23T11:35:16;9.00;99.90
27540;DHT22;15906;52.046;4.724;2023-02-23T11:37:51;9.10;99.90
27540;DHT22;15906;52.046;4.724;2023-02-23T11:40:30;9.10;99.90
27540;DHT22;15906;52.046;4.724;2023-02-23T11:45:45;9.20;99.90
27540;DHT22;15906;52.046;4.724;2023-02-23T11:48:30;9.10;99.90
27540;DHT22;15906;52.046;4.724;2023-02-23T11:50:57;9.10;99.90
27540;DHT22;15906;52.046;4.724;2023-02-23T11:53:31;9.20;99.90
27540;DHT22;15906;52.046;4.724;2023-02-23T11:56:00;9.20;99.90
27540;DHT22;15906;52.046;4.724;2023-02-23T11:58:49;9.10;99.90
27540;DHT22;15906;52.046;4.724;2023-02-23T12:01:22;9.20;99.90
27540;DHT22;15906;52.046;4.724;2023-02-23T12:03:57;9.20;99.90
27540;DHT22;15906;52.046;4.724;2023-02-23T12:06:35;9.20;99.90
27540;DHT22;15906;52.046;4.724;2023-02-23T12:09:29;9.30;99.90
27540;DHT22;15906;52.046;4.724;2023-02-23T12:12:10;9.30;99.90
27540;DHT22;15906;52.046;4.724;2023-02-23T12:17:05;9.30;99.90
27540;DHT22;15906;52.046;4.724;2023-02-23T12:19:49;9.20;99.90
27540;DHT22;15906;52.046;4.724;2023-02-23T12:22:19;9.30;99.90
27540;DHT22;15906;52.046;4.724;2023-02-23T12:24:49;9.30;99.90
27540;DHT22;15906;52.046;4.724;2023-02-23T12:30:21;9.40;99.90
27540;DHT22;15906;52.046;4.724;2023-02-23T12:33:03;9.40;99.90
27540;DHT22;15906;52.046;4.724;2023-02-23T12:35:52;9.60;99.90
27540;DHT22;15906;52.046;4.724;2023-02-23T12:38:50;9.70;99.90
27540;DHT22;15906;52.046;4.724;2023-02-23T12:41:42;9.70;99.90
27540;DHT22;15906;52.046;4.724;2023-02-23T12:49:58;9.80;99.90
27540;DHT22;15906;52.046;4.724;2023-02-23T12:52:35;10.10;99.90
27540;DHT22;15906;52.046;4.724;2023-02-23T12:55:02;10.10;99.90
27540;DHT22;15906;52.046;4.724;2023-02-23T13:00:29;10.10;99.90
27540;DHT22;15906;52.046;4.724;2023-02-23T13:08:57;9.80;99.90
27540;DHT22;15906;52.046;4.724;2023-02-23T13:14:10;9.70;99.90
27540;DHT22;15906;52.046;4.724;2023-02-23T13:16:49;9.70;99.90
27540;DHT22;15906;52.046;4.724;2023-02-23T13:24:26;9.60;99.90
27540;DHT22;15906;52.046;4.724;2023-02-23T13:29:44;9.70;99.90
27540;DHT22;15906;52.046;4.724;2023-02-23T13:32:13;9.60;99.90
27540;DHT22;15906;52.046;4.724;2023-02-23T13:34:47;9.70;99.90
27540;DHT22;15906;52.046;4.724;2023-02-23T13:37:20;9.60;99.90
27540;DHT22;15906;52.046;4.724;2023-02-23T13:56:22;9.40;99.90
27540;DHT22;15906;52.046;4.724;2023-02-23T13:58:54;9.20;99.90
27540;DHT22;15906;52.046;4.724;2023-02-23T14:01:36;9.30;99.90
27540;DHT22;15906;52.046;4.724;2023-02-23T14:04:24;9.40;99.90
27540;DHT22;15906;52.046;4.724;2023-02-23T14:09:21;9.40;99.90
27540;DHT22;15906;52.046;4.724;2023-02-23T14:11:52;9.40;99.90
27540;DHT22;15906;52.046;4.724;2023-02-23T14:22:36;9.60;99.90
27540;DHT22;15906;52.046;4.724;2023-02-23T14:28:21;9.60;99.90
27540;DHT22;15906;52.046;4.724;2023-02-23T14:31:00;9.60;99.90
27540;DHT22;15906;52.046;4.724;2023-02-23T14:36:26;9.90;99.90
27540;DHT22;15906;52.046;4.724;2023-02-23T14:39:09;9.90;99.90
27540;DHT22;15906;52.046;4.724;2023-02-23T14:41:50;9.90;99.90
27540;DHT22;15906;52.046;4.724;2023-02-23T14:44:23;9.70;99.90
27540;DHT22;15906;52.046;4.724;2023-02-23T14:49:27;9.70;99.90
27540;DHT22;15906;52.046;4.724;2023-02-23T14:52:13;9.80;99.90
27540;DHT22;15906;52.046;4.724;2023-02-23T14:54:43;9.70;99.90
27540;DHT22;15906;52.046;4.724;2023-02-23T14:57:20;9.70;99.90
27540;DHT22;15906;52.046;4.724;2023-02-23T15:00:28;9.60;99.90
27540;DHT22;15906;52.046;4.724;2023-02-23T15:02:58;9.60;99.90
27540;DHT22;15906;52.046;4.724;2023-02-23T15:05:32;9.70;99.90
27540;DHT22;15906;52.046;4.724;2023-02-23T15:08:02;9.60;99.90
27540;DHT22;15906;52.046;4.724;2023-02-23T15:10:42;9.50;99.90
27540;DHT22;15906;52.046;4.724;2023-02-23T15:13:28;9.50;99.90
27540;DHT22;15906;52.046;4.724;2023-02-23T15:15:55;9.40;99.90
27540;DHT22;15906;52.046;4.724;2023-02-23T15:18:32;9.40;99.90
27540;DHT22;15906;52.046;4.724;2023-02-23T15:21:07;9.20;99.90
27540;DHT22;15906;52.046;4.724;2023-02-23T15:23:35;9.10;99.90
27540;DHT22;15906;52.046;4.724;2023-02-23T15:26:18;9.10;99.90
27540;DHT22;15906;52.046;4.724;2023-02-23T15:28:49;8.90;99.90
27540;DHT22;15906;52.046;4.724;2023-02-23T15:31:15;8.90;99.90
27540;DHT22;15906;52.046;4.724;2023-02-23T15:33:40;8.80;99.90
27540;DHT22;15906;52.046;4.724;2023-02-23T15:38:48;8.90;99.90
27540;DHT22;15906;52.046;4.724;2023-02-23T15:41:24;8.90;99.90
27540;DHT22;15906;52.046;4.724;2023-02-23T15:43:51;8.70;99.90
27540;DHT22;15906;52.046;4.724;2023-02-23T15:46:22;8.60;99.90
27540;DHT22;15906;52.046;4.724;2023-02-23T15:48:51;8.60;99.90
27540;DHT22;15906;52.046;4.724;2023-02-23T15:51:35;8.60;99.90
27540;DHT22;15906;52.046;4.724;2023-02-23T15:54:10;8.60;99.90
27540;DHT22;15906;52.046;4.724;2023-02-23T15:56:41;8.40;99.90
27540;DHT22;15906;52.046;4.724;2023-02-23T15:59:19;8.40;99.90
27540;DHT22;15906;52.046;4.724;2023-02-23T16:01:46;8.30;99.90
27540;DHT22;15906;52.046;4.724;2023-02-23T16:06:44;8.40;99.90
27540;DHT22;15906;52.046;4.724;2023-02-23T16:11:59;8.40;99.90
27540;DHT22;15906;52.046;4.724;2023-02-23T16:14:31;8.50;99.90
27540;DHT22;15906;52.046;4.724;2023-02-23T16:16:57;8.40;99.90
27540;DHT22;15906;52.046;4.724;2023-02-23T16:19:24;8.40;99.90
27540;DHT22;15906;52.046;4.724;2023-02-23T16:21:54;8.40;99.90
27540;DHT22;15906;52.046;4.724;2023-02-23T16:24:23;8.30;99.90
27540;DHT22;15906;52.046;4.724;2023-02-23T16:26:55;8.20;99.90
27540;DHT22;15906;52.046;4.724;2023-02-23T16:29:38;8.30;99.90
27540;DHT22;15906;52.046;4.724;2023-02-23T16:32:17;8.20;99.90
27540;DHT22;15906;52.046;4.724;2023-02-23T16:34:58;8.20;99.90
27540;DHT22;15906;52.046;4.724;2023-02-23T16:37:25;8.20;99.90
27540;DHT22;15906;52.046;4.724;2023-02-23T16:39:53;8.00;99.90
27540;DHT22;15906;52.046;4.724;2023-02-23T16:42:30;8.00;99.90
27540;DHT22;15906;52.046;4.724;2023-02-23T16:44:56;8.10;99.90
27540;DHT22;15906;52.046;4.724;2023-02-23T16:49:48;8.10;99.90
27540;DHT22;15906;52.046;4.724;2023-02-23T16:52:17;8.00;99.90
27540;DHT22;15906;52.046;4.724;2023-02-23T16:54:44;8.00;99.90
27540;DHT22;15906;52.046;4.724;2023-02-23T16:57:27;8.00;99.90
27540;DHT22;15906;52.046;4.724;2023-02-23T16:59:54;8.00;99.90
27540;DHT22;15906;52.046;4.724;2023-02-23T17:02:20;7.90;99.90
27540;DHT22;15906;52.046;4.724;2023-02-23T17:04:50;7.80;99.90
27540;DHT22;15906;52.046;4.724;2023-02-23T17:07:18;7.80;99.90
27540;DHT22;15906;52.046;4.724;2023-02-23T17:09:43;7.70;99.90
27540;DHT22;15906;52.046;4.724;2023-02-23T17:12:13;7.70;99.90
27540;DHT22;15906;52.046;4.724;2023-02-23T17:14:43;7.60;99.90
27540;DHT22;15906;52.046;4.724;2023-02-23T17:17:16;7.70;99.90
27540;DHT22;15906;52.046;4.724;2023-02-23T17:19:42;7.70;99.90
27540;DHT22;15906;52.046;4.724;2023-02-23T17:22:10;7.50;99.90
27540;DHT22;15906;52.046;4.724;2023-02-23T17:24:37;7.50;99.90
27540;DHT22;15906;52.046;4.724;2023-02-23T17:27:03;7.50;99.90
27540;DHT22;15906;52.046;4.724;2023-02-23T17:29:28;7.50;99.90
27540;DHT22;15906;52.046;4.724;2023-02-23T17:31:54;7.50;99.90
27540;DHT22;15906;52.046;4.724;2023-02-23T17:34:19;7.40;99.90
27540;DHT22;15906;52.046;4.724;2023-02-23T17:36:45;7.40;99.90
27540;DHT22;15906;52.046;4.724;2023-02-23T17:39:11;7.40;99.90
27540;DHT22;15906;52.046;4.724;2023-02-23T17:41:38;7.30;99.90
27540;DHT22;15906;52.046;4.724;2023-02-23T17:44:04;7.30;99.90
27540;DHT22;15906;52.046;4.724;2023-02-23T17:46:30;7.20;99.90
27540;DHT22;15906;52.046;4.724;2023-02-23T17:48:55;7.30;99.90
27540;DHT22;15906;52.046;4.724;2023-02-23T17:51:21;7.30;99.90
27540;DHT22;15906;52.046;4.724;2023-02-23T17:53:47;7.30;99.90
27540;DHT22;15906;52.046;4.724;2023-02-23T17:56:12;7.20;99.90
27540;DHT22;15906;52.046;4.724;2023-02-23T17:58:38;7.10;99.90
27540;DHT22;15906;52.046;4.724;2023-02-23T18:01:05;7.10;99.90
27540;DHT22;15906;52.046;4.724;2023-02-23T18:03:33;7.10;99.90
27540;DHT22;15906;52.046;4.724;2023-02-23T18:06:19;7.10;99.90
27540;DHT22;15906;52.046;4.724;2023-02-23T18:08:45;7.00;99.90
27540;DHT22;15906;52.046;4.724;2023-02-23T18:11:12;7.00;99.90
27540;DHT22;15906;52.046;4.724;2023-02-23T18:13:38;7.00;99.90
27540;DHT22;15906;52.046;4.724;2023-02-23T18:16:06;6.90;99.90
27540;DHT22;15906;52.046;4.724;2023-02-23T18:18:34;7.00;99.90
27540;DHT22;15906;52.046;4.724;2023-02-23T18:21:00;6.90;99.90
27540;DHT22;15906;52.046;4.724;2023-02-23T18:23:27;7.00;99.90
27540;DHT22;15906;52.046;4.724;2023-02-23T18:25:53;6.90;99.90